Flight Briefing for CPX788

Departure Arrival
Incheon International Airport (RKSI)
Click to view FAA NOTAMS
Changi International Airport (WSSS)
Click to view FAA NOTAMS
Departure Time Arrival Time
N/A N/A
Aircraft Distance
B747-400BCF 2501nm
Departure METAR Arrival METAR
RKSI 212300Z 15008KT 130V190 CAVOK 16/10 Q1006 NOSIG WSSS 212300Z VRB02KT 4000 HZ FEW017TCU BKN300 27/26 Q1010 BECMG FM0030 TL0045 NSW
Suggested Route
BOPTA1K BOPTA Z51 BEDES Y711 MUGUS Y742 SALMI Q11 TACLE Q12 KABAM N892 VMR


View recent IFR Routes data
Notes



Charts and Procedures

Charts for RKSI
No chart available
Charts for WSSS
No chart available

Windy.com Weather Map